Univ Nv las Vegas, Nevada
Current Conditions -  °F | °C
As of 12:56 PM on Saturday 22 Nov 2014 (Local Time) from KLAS Reporting Station
Scattered Clouds Scattered Clouds  
Wind Chill: 67°   Ceiling: Unl
Heat Index: 67°   Visibility: 10mi
Dew Point: 29°   Wind: 3mph
Humidity: 24%   Direction: NA
Pressure: 29.89"   Gusts: NA
Location:  36.0857°N, 115.147°W
Report Text: KLAS 222056Z VRB03KT 10SM SCT250 19/M02 A2989 RMK AO2 SLP111 T01941017 56036 $
Loading
Personal Weather Stations






























Interactive Weather Map New forecast layout! Learn more

10-Day Weather Forecast

Advertisements
Track Severe Weather on mobile